Time;durP1;ratioP1;P1;durP2;ratioP2;P2;SDS_P1;SDS_P2;PMS_P1;PMS_P2;Temp;Humidity;BMP_temperature;BMP_pressure;BME280_temperature;BME280_humidity;BME280_pressure;Samples;Min_cycle;Max_cycle;Signal;HPM_P1;HPM_P2
2023/01/14 00:02:15;;;;;;;;;;;6.90;99.90;;;;;;5049368;28;19990;-69
2023/01/14 00:04:41;;;;;;;;;;;7.00;99.90;;;;;;5050229;28;20377;-68
2023/01/14 00:07:07;;;;;;;;;;;6.90;99.90;;;;;;5052086;28;19920;-68
2023/01/14 00:09:33;;;;;;;;;;;6.90;99.90;;;;;;5054510;28;20012;-68
2023/01/14 00:11:58;;;;;;;;;;;6.90;99.90;;;;;;5037018;28;19921;-68
2023/01/14 00:14:27;;;;;;;;;;;6.80;99.90;;;;;;5054372;28;19995;-70
2023/01/14 00:16:53;;;;;;;;;;;6.90;99.90;;;;;;5053641;28;19990;-68
2023/01/14 00:19:19;;;;;;;;;;;6.90;99.90;;;;;;5054679;28;20378;-68
2023/01/14 00:21:45;;;;;;;;;;;6.80;99.90;;;;;;5053199;28;19925;-67
2023/01/14 00:24:11;;;;;;;;;;;6.90;99.90;;;;;;5053586;28;19925;-67
2023/01/14 00:26:37;;;;;;;;;;;6.90;99.90;;;;;;5054269;28;19928;-67
2023/01/14 00:29:03;;;;;;;;;;;6.90;99.90;;;;;;5054767;28;19920;-67
2023/01/14 00:31:29;;;;;;;;;;;7.00;99.90;;;;;;5054351;28;20263;-67
2023/01/14 00:33:57;;;;;;;;;;;6.90;99.90;;;;;;5053637;28;20061;-68
2023/01/14 00:36:23;;;;;;;;;;;7.00;99.90;;;;;;5054351;28;20039;-68
2023/01/14 00:38:49;;;;;;;;;;;7.00;99.90;;;;;;5036676;28;19921;-66
2023/01/14 00:41:16;;;;;;;;;;;6.90;99.90;;;;;;5053262;28;19927;-67
2023/01/14 00:43:42;;;;;;;;;;;6.80;99.90;;;;;;5052985;28;19965;-69
2023/01/14 00:46:13;;;;;;;;;;;6.80;99.90;;;;;;5054112;28;20366;-67
2023/01/14 00:48:39;;;;;;;;;;;6.80;99.90;;;;;;5036390;28;20282;-68
2023/01/14 00:51:05;;;;;;;;;;;6.80;99.90;;;;;;5054315;28;19929;-67
2023/01/14 00:53:31;;;;;;;;;;;6.80;99.90;;;;;;5054066;28;19920;-68
2023/01/14 00:55:57;;;;;;;;;;;6.70;99.90;;;;;;5053252;28;19921;-68
2023/01/14 00:58:22;;;;;;;;;;;6.70;99.90;;;;;;5054429;28;19975;-67
2023/01/14 01:00:48;;;;;;;;;;;6.70;99.90;;;;;;5036018;28;19968;-67
2023/01/14 01:03:14;;;;;;;;;;;6.70;99.90;;;;;;5052924;28;20355;-67
2023/01/14 01:05:40;;;;;;;;;;;6.70;99.90;;;;;;5052708;28;20393;-67
2023/01/14 01:08:07;;;;;;;;;;;6.70;99.90;;;;;;5035882;28;19979;-67
2023/01/14 01:10:34;;;;;;;;;;;6.70;99.90;;;;;;5053485;28;20277;-68
2023/01/14 01:13:01;;;;;;;;;;;6.70;99.90;;;;;;5053220;28;19935;-67
2023/01/14 01:15:26;;;;;;;;;;;6.70;99.90;;;;;;5052405;28;19987;-68
2023/01/14 01:17:52;;;;;;;;;;;6.70;99.90;;;;;;5051558;28;19916;-66
2023/01/14 01:20:17;;;;;;;;;;;6.80;99.90;;;;;;5052562;28;19921;-68
2023/01/14 01:22:43;;;;;;;;;;;6.80;99.90;;;;;;5053301;28;20090;-67
2023/01/14 01:25:09;;;;;;;;;;;6.80;99.90;;;;;;5053688;28;19927;-67
2023/01/14 01:27:34;;;;;;;;;;;6.90;99.90;;;;;;5052172;28;20388;-69
2023/01/14 01:30:00;;;;;;;;;;;6.80;99.90;;;;;;5035955;28;20278;-67
2023/01/14 01:32:26;;;;;;;;;;;6.90;99.90;;;;;;5052235;28;19921;-68
2023/01/14 01:34:51;;;;;;;;;;;6.90;99.90;;;;;;5052035;28;19921;-67
2023/01/14 01:37:17;;;;;;;;;;;6.90;99.90;;;;;;5052505;28;19970;-67
2023/01/14 01:39:42;;;;;;;;;;;6.90;99.90;;;;;;5051556;28;19921;-68
2023/01/14 01:42:19;;;;;;;;;;;6.90;99.90;;;;;;5053233;28;19967;-67
2023/01/14 01:44:45;;;;;;;;;;;6.90;99.90;;;;;;5051879;28;19975;-67
2023/01/14 01:47:11;;;;;;;;;;;6.90;99.90;;;;;;5053260;28;20007;-68
2023/01/14 01:49:37;;;;;;;;;;;6.90;99.90;;;;;;5051805;28;19921;-69
2023/01/14 01:52:05;;;;;;;;;;;6.90;99.90;;;;;;5051789;28;19928;-67
2023/01/14 01:54:34;;;;;;;;;;;6.90;99.90;;;;;;5052089;28;19921;-67
2023/01/14 01:57:01;;;;;;;;;;;7.00;99.90;;;;;;5051656;28;20007;-67
2023/01/14 01:59:29;;;;;;;;;;;7.00;99.90;;;;;;5035016;28;19970;-67
2023/01/14 02:01:55;;;;;;;;;;;6.90;99.90;;;;;;5052284;28;19928;-68
2023/01/14 02:04:21;;;;;;;;;;;6.90;99.90;;;;;;5052896;28;19928;-67
2023/01/14 02:06:47;;;;;;;;;;;6.90;99.90;;;;;;5051907;28;19921;-68
2023/01/14 02:09:13;;;;;;;;;;;6.90;99.90;;;;;;5052847;28;19979;-67
2023/01/14 02:11:39;;;;;;;;;;;6.90;99.90;;;;;;5051028;28;19921;-69
2023/01/14 02:14:11;;;;;;;;;;;6.80;99.90;;;;;;5051525;28;19928;-67
2023/01/14 02:16:37;;;;;;;;;;;6.80;99.90;;;;;;5052465;28;20152;-67
2023/01/14 02:19:06;;;;;;;;;;;6.80;99.90;;;;;;5051136;28;20270;-67
2023/01/14 02:21:34;;;;;;;;;;;6.80;99.90;;;;;;5051637;28;20034;-67
2023/01/14 02:24:09;;;;;;;;;;;6.70;99.90;;;;;;5052153;28;19999;-67
2023/01/14 02:26:40;;;;;;;;;;;6.70;99.90;;;;;;5052100;28;19969;-67
2023/01/14 02:29:06;;;;;;;;;;;6.70;99.90;;;;;;5051008;28;19921;-67
2023/01/14 02:31:37;;;;;;;;;;;6.60;99.90;;;;;;5034525;28;19931;-67
2023/01/14 02:34:03;;;;;;;;;;;6.60;99.90;;;;;;5051310;28;19925;-67
2023/01/14 02:36:40;;;;;;;;;;;6.50;99.90;;;;;;5034688;28;19921;-67
2023/01/14 02:39:24;;;;;;;;;;;6.50;99.90;;;;;;5050822;28;19920;-67
2023/01/14 02:44:40;;;;;;;;;;;6.50;99.90;;;;;;5052111;28;19927;-67
2023/01/14 02:47:09;;;;;;;;;;;6.50;99.90;;;;;;5050618;28;19925;-67
2023/01/14 02:49:41;;;;;;;;;;;6.50;99.90;;;;;;5051384;28;19928;-68
2023/01/14 02:52:07;;;;;;;;;;;6.40;99.90;;;;;;5051904;28;19928;-68
2023/01/14 02:54:32;;;;;;;;;;;6.40;99.90;;;;;;5052235;28;19943;-67
2023/01/14 02:57:06;;;;;;;;;;;6.40;99.90;;;;;;5050567;28;20019;-67
2023/01/14 02:59:46;;;;;;;;;;;6.40;99.90;;;;;;5050924;28;20001;-67
2023/01/14 03:02:15;;;;;;;;;;;6.40;99.90;;;;;;5052019;28;19921;-67
2023/01/14 03:04:41;;;;;;;;;;;6.30;99.90;;;;;;5052244;28;19927;-68
2023/01/14 03:07:12;;;;;;;;;;;6.30;99.90;;;;;;5051415;28;20483;-67
2023/01/14 03:09:53;;;;;;;;;;;6.30;99.90;;;;;;5052096;28;19921;-67
2023/01/14 03:12:37;;;;;;;;;;;6.30;99.90;;;;;;5050939;28;19939;-67
2023/01/14 03:15:09;;;;;;;;;;;6.30;99.90;;;;;;5051499;28;19927;-67
2023/01/14 03:17:47;;;;;;;;;;;6.30;99.90;;;;;;5051929;28;19975;-67
2023/01/14 03:20:22;;;;;;;;;;;6.30;99.90;;;;;;5050538;28;19928;-67
2023/01/14 03:22:49;;;;;;;;;;;6.30;99.90;;;;;;5050721;28;19927;-67
2023/01/14 03:25:16;;;;;;;;;;;6.30;99.90;;;;;;5033562;28;19928;-72
2023/01/14 03:27:43;;;;;;;;;;;6.30;99.90;;;;;;5050835;28;20400;-69
2023/01/14 03:30:12;;;;;;;;;;;6.30;99.90;;;;;;5033598;28;20506;-70
2023/01/14 03:32:38;;;;;;;;;;;6.30;99.90;;;;;;5050324;28;19921;-69
2023/01/14 03:35:09;;;;;;;;;;;6.30;99.90;;;;;;5049860;28;19928;-70
2023/01/14 03:37:36;;;;;;;;;;;6.30;99.90;;;;;;5050747;28;20362;-69
2023/01/14 03:40:05;;;;;;;;;;;6.30;99.90;;;;;;5050203;28;20333;-69
2023/01/14 03:42:36;;;;;;;;;;;6.30;99.90;;;;;;5054076;28;20255;-70
2023/01/14 03:45:15;;;;;;;;;;;6.20;99.90;;;;;;5036973;28;19924;-71
2023/01/14 03:47:41;;;;;;;;;;;6.20;99.90;;;;;;5037746;28;19927;-70
2023/01/14 03:50:08;;;;;;;;;;;6.20;99.90;;;;;;5053868;28;20015;-71
2023/01/14 03:52:49;;;;;;;;;;;6.10;99.90;;;;;;5037263;28;19925;-70
2023/01/14 03:55:41;;;;;;;;;;;6.10;99.90;;;;;;5053949;28;19927;-71
2023/01/14 03:58:25;;;;;;;;;;;6.10;99.90;;;;;;5006544;28;20393;-70
2023/01/14 04:00:53;;;;;;;;;;;6.00;99.90;;;;;;5037426;28;19921;-70
2023/01/14 04:03:19;;;;;;;;;;;6.00;99.90;;;;;;5054663;28;19921;-71
2023/01/14 04:05:45;;;;;;;;;;;6.00;99.90;;;;;;5037336;28;20370;-69
2023/01/14 04:08:11;;;;;;;;;;;6.00;99.90;;;;;;5053358;28;19983;-69
2023/01/14 04:10:36;;;;;;;;;;;5.90;99.90;;;;;;5037203;28;19920;-70
2023/01/14 04:15:46;;;;;;;;;;;6.20;99.90;;;;;;5054122;28;20301;-70
2023/01/14 04:18:12;;;;;;;;;;;5.90;99.90;;;;;;5053526;28;19921;-69
2023/01/14 04:20:37;;;;;;;;;;;5.90;99.90;;;;;;5037035;28;19920;-69
2023/01/14 04:23:03;;;;;;;;;;;5.90;99.90;;;;;;5053324;28;19927;-69
2023/01/14 04:25:28;;;;;;;;;;;5.90;99.90;;;;;;5054857;28;19928;-69
2023/01/14 04:27:54;;;;;;;;;;;5.90;99.90;;;;;;5037175;28;19921;-70
2023/01/14 04:30:19;;;;;;;;;;;5.90;99.90;;;;;;5052977;28;19928;-69
2023/01/14 04:32:45;;;;;;;;;;;5.90;99.90;;;;;;5053283;28;19925;-69
2023/01/14 04:35:11;;;;;;;;;;;5.80;99.90;;;;;;5036706;28;20027;-69
2023/01/14 04:37:37;;;;;;;;;;;5.90;99.90;;;;;;5053726;28;19921;-70
2023/01/14 04:40:03;;;;;;;;;;;5.90;99.90;;;;;;5019741;28;19937;-69
2023/01/14 04:42:29;;;;;;;;;;;5.80;99.90;;;;;;5052594;28;19924;-69
2023/01/14 04:44:55;;;;;;;;;;;5.80;99.90;;;;;;5052610;28;19970;-69
2023/01/14 04:47:21;;;;;;;;;;;5.80;99.90;;;;;;5052735;28;19927;-71
2023/01/14 04:49:46;;;;;;;;;;;5.80;99.90;;;;;;5036322;28;19921;-68
2023/01/14 04:52:12;;;;;;;;;;;5.80;99.90;;;;;;5051337;28;19921;-71
2023/01/14 04:54:38;;;;;;;;;;;5.80;99.90;;;;;;5053023;28;19921;-70
2023/01/14 04:57:03;;;;;;;;;;;5.70;99.90;;;;;;5036174;28;19925;-71
2023/01/14 04:59:29;;;;;;;;;;;5.80;99.90;;;;;;5052920;28;19943;-70
2023/01/14 05:01:54;;;;;;;;;;;5.70;99.90;;;;;;5036101;28;19979;-71
2023/01/14 05:04:20;;;;;;;;;;;5.80;99.90;;;;;;5035939;28;19925;-71
2023/01/14 05:06:46;;;;;;;;;;;5.70;99.90;;;;;;5052307;28;20374;-70
2023/01/14 05:09:11;;;;;;;;;;;5.70;99.90;;;;;;5052667;28;19978;-70
2023/01/14 05:11:37;;;;;;;;;;;5.70;99.90;;;;;;5052609;28;19921;-70
2023/01/14 05:14:02;;;;;;;;;;;5.70;99.90;;;;;;5035810;28;19972;-70
2023/01/14 05:16:28;;;;;;;;;;;5.70;99.90;;;;;;5035600;28;19972;-70
2023/01/14 05:18:54;;;;;;;;;;;5.80;99.90;;;;;;5052489;28;19927;-69
2023/01/14 05:21:20;;;;;;;;;;;5.70;99.90;;;;;;5035649;28;19924;-70
2023/01/14 05:23:46;;;;;;;;;;;5.80;99.90;;;;;;5035732;28;20357;-70
2023/01/14 05:26:11;;;;;;;;;;;5.70;99.90;;;;;;5052190;28;19921;-70
2023/01/14 05:28:37;;;;;;;;;;;5.70;99.90;;;;;;5053614;28;19936;-70
2023/01/14 05:31:03;;;;;;;;;;;5.70;99.90;;;;;;5035884;28;19921;-69
2023/01/14 05:33:29;;;;;;;;;;;5.80;99.90;;;;;;5052930;28;20024;-70
2023/01/14 05:35:56;;;;;;;;;;;5.70;99.90;;;;;;5051931;28;19972;-69
2023/01/14 05:38:21;;;;;;;;;;;5.70;99.90;;;;;;5051869;28;20341;-69
2023/01/14 05:40:47;;;;;;;;;;;5.70;99.90;;;;;;5051915;28;20012;-70
2023/01/14 05:45:59;;;;;;;;;;;5.70;99.90;;;;;;5038152;28;19921;-70
2023/01/14 05:48:25;;;;;;;;;;;5.70;99.90;;;;;;5051535;28;19920;-69
2023/01/14 05:50:55;;;;;;;;;;;5.70;99.90;;;;;;5051306;28;19946;-69
2023/01/14 05:53:21;;;;;;;;;;;5.70;99.90;;;;;;5051383;28;19921;-66
2023/01/14 05:55:47;;;;;;;;;;;5.60;99.90;;;;;;5051923;28;19978;-69
2023/01/14 05:58:13;;;;;;;;;;;5.60;99.90;;;;;;5051589;28;19924;-69
2023/01/14 06:06:28;;;;;;;;;;;5.70;99.90;;;;;;5052064;28;20259;-69
2023/01/14 06:08:55;;;;;;;;;;;5.00;99.90;;;;;;5050391;28;19971;-70
2023/01/14 06:11:21;;;;;;;;;;;5.70;99.90;;;;;;5051140;28;19990;-70
2023/01/14 06:13:48;;;;;;;;;;;5.70;99.90;;;;;;5051325;28;20433;-69
2023/01/14 06:16:14;;;;;;;;;;;5.70;99.90;;;;;;5052183;28;19921;-73
2023/01/14 06:18:42;;;;;;;;;;;5.70;99.90;;;;;;5034459;28;19924;-69
2023/01/14 06:21:12;;;;;;;;;;;5.70;99.90;;;;;;5018704;28;20015;-69
2023/01/14 06:23:38;;;;;;;;;;;5.70;99.90;;;;;;5034722;28;19927;-69
2023/01/14 06:26:07;;;;;;;;;;;5.70;99.90;;;;;;5051194;28;20062;-69
2023/01/14 06:28:33;;;;;;;;;;;5.70;99.90;;;;;;5050636;28;20388;-69
2023/01/14 06:30:58;;;;;;;;;;;5.70;99.90;;;;;;5034527;28;19924;-69
2023/01/14 06:33:24;;;;;;;;;;;5.70;99.90;;;;;;5050492;28;20350;-69
2023/01/14 06:35:50;;;;;;;;;;;5.70;99.90;;;;;;5017801;28;19924;-69
2023/01/14 06:38:15;;;;;;;;;;;5.70;99.90;;;;;;5034293;28;19978;-72
2023/01/14 06:40:44;;;;;;;;;;;5.70;99.90;;;;;;5052058;28;19920;-69
2023/01/14 06:43:10;;;;;;;;;;;5.70;99.90;;;;;;5018482;28;20354;-69
2023/01/14 06:45:35;;;;;;;;;;;5.70;99.90;;;;;;5017514;28;19974;-69
2023/01/14 06:48:01;;;;;;;;;;;5.70;99.90;;;;;;5050162;28;19971;-69
2023/01/14 06:50:27;;;;;;;;;;;5.70;99.90;;;;;;5050330;28;19972;-70
2023/01/14 06:52:53;;;;;;;;;;;5.70;99.90;;;;;;5034082;28;19928;-70
2023/01/14 06:55:19;;;;;;;;;;;5.70;99.90;;;;;;5050785;28;19928;-72
2023/01/14 06:57:45;;;;;;;;;;;5.70;99.90;;;;;;5033983;28;20007;-69
2023/01/14 07:00:11;;;;;;;;;;;5.70;99.90;;;;;;5050729;28;19921;-70
2023/01/14 07:02:36;;;;;;;;;;;5.70;99.90;;;;;;5033788;28;19927;-69
2023/01/14 07:05:02;;;;;;;;;;;5.80;99.90;;;;;;5050642;28;19920;-68
2023/01/14 07:07:28;;;;;;;;;;;5.70;99.90;;;;;;5049932;28;20350;-69
2023/01/14 07:09:53;;;;;;;;;;;5.70;99.90;;;;;;5034395;28;19921;-71
2023/01/14 07:12:19;;;;;;;;;;;5.70;99.90;;;;;;5033719;28;19924;-72
2023/01/14 07:14:44;;;;;;;;;;;5.60;99.90;;;;;;5050463;28;19920;-70
2023/01/14 07:17:10;;;;;;;;;;;5.70;99.90;;;;;;5037690;28;19925;-70
2023/01/14 07:19:35;;;;;;;;;;;5.70;99.90;;;;;;5055698;28;19921;-69
2023/01/14 07:22:01;;;;;;;;;;;5.70;99.90;;;;;;5038313;28;19966;-70
2023/01/14 07:24:26;;;;;;;;;;;5.70;99.90;;;;;;5038016;28;20357;-70
2023/01/14 07:26:52;;;;;;;;;;;5.70;99.90;;;;;;5037962;28;19986;-70
2023/01/14 07:29:18;;;;;;;;;;;5.80;99.90;;;;;;5055598;28;19971;-69
2023/01/14 07:31:43;;;;;;;;;;;5.80;99.90;;;;;;5054157;28;19974;-70
2023/01/14 07:34:09;;;;;;;;;;;5.80;99.90;;;;;;5038164;28;19920;-70
2023/01/14 07:36:34;;;;;;;;;;;5.80;99.90;;;;;;5054112;28;19921;-70
2023/01/14 07:39:00;;;;;;;;;;;5.90;99.90;;;;;;5037841;28;19978;-70
2023/01/14 07:41:25;;;;;;;;;;;5.90;99.90;;;;;;5037324;28;19964;-70
2023/01/14 07:43:51;;;;;;;;;;;5.90;99.90;;;;;;5037788;28;19928;-69
2023/01/14 07:46:17;;;;;;;;;;;6.00;99.90;;;;;;5054469;28;19928;-70
2023/01/14 07:48:45;;;;;;;;;;;5.90;99.90;;;;;;5053910;28;19972;-69
2023/01/14 07:51:12;;;;;;;;;;;5.90;99.90;;;;;;5037841;28;19943;-70
2023/01/14 07:53:37;;;;;;;;;;;5.90;99.90;;;;;;5053660;28;20493;-69
2023/01/14 07:56:04;;;;;;;;;;;6.00;99.90;;;;;;5054304;28;19921;-69
2023/01/14 07:58:30;;;;;;;;;;;6.00;99.90;;;;;;5037415;28;20396;-70
2023/01/14 08:00:55;;;;;;;;;;;6.00;99.90;;;;;;5037566;28;19927;-69
2023/01/14 08:03:21;;;;;;;;;;;6.00;99.90;;;;;;5053851;28;20306;-69
2023/01/14 08:05:47;;;;;;;;;;;6.00;99.90;;;;;;5036822;28;19916;-69
2023/01/14 08:08:13;;;;;;;;;;;6.10;99.90;;;;;;5020085;28;19928;-69
2023/01/14 08:10:38;;;;;;;;;;;6.00;99.90;;;;;;5053718;28;19960;-70
2023/01/14 08:13:04;;;;;;;;;;;6.10;99.90;;;;;;5053642;28;19971;-69
2023/01/14 08:15:30;;;;;;;;;;;6.10;99.90;;;;;;5036490;28;19964;-70
2023/01/14 08:17:56;;;;;;;;;;;6.10;99.90;;;;;;5053790;28;19921;-69
2023/01/14 08:20:25;;;;;;;;;;;6.10;99.90;;;;;;5053485;28;19921;-68
2023/01/14 08:22:55;;;;;;;;;;;6.10;99.90;;;;;;5053444;28;19920;-70
2023/01/14 08:25:22;;;;;;;;;;;6.10;99.90;;;;;;5053674;28;20366;-70
2023/01/14 08:27:48;;;;;;;;;;;6.20;99.90;;;;;;5053230;28;20382;-70
2023/01/14 08:30:13;;;;;;;;;;;6.10;99.90;;;;;;5053750;28;19927;-69
2023/01/14 08:32:39;;;;;;;;;;;6.10;99.90;;;;;;5052890;28;19931;-69
2023/01/14 08:35:05;;;;;;;;;;;6.20;99.90;;;;;;5053720;28;19920;-71
2023/01/14 08:37:30;;;;;;;;;;;6.20;99.90;;;;;;5053877;28;19927;-76
2023/01/14 08:39:56;;;;;;;;;;;6.20;99.90;;;;;;5052226;28;20362;-70
2023/01/14 08:42:21;;;;;;;;;;;6.30;99.90;;;;;;5052894;28;19928;-71
2023/01/14 08:44:47;;;;;;;;;;;6.30;99.90;;;;;;5035674;28;19925;-70
2023/01/14 08:47:13;;;;;;;;;;;6.30;99.90;;;;;;5036374;28;19920;-70
2023/01/14 08:49:38;;;;;;;;;;;6.20;99.90;;;;;;5036465;28;19927;-70
2023/01/14 08:52:04;;;;;;;;;;;6.20;99.90;;;;;;5036394;28;20362;-71
2023/01/14 08:54:29;;;;;;;;;;;6.20;99.90;;;;;;5053113;28;19924;-71
2023/01/14 08:56:55;;;;;;;;;;;6.10;99.90;;;;;;5036039;28;19947;-72
2023/01/14 08:59:21;;;;;;;;;;;6.20;99.90;;;;;;5036655;28;20024;-72
2023/01/14 09:01:47;;;;;;;;;;;6.20;99.90;;;;;;5052643;28;20098;-69
2023/01/14 09:04:12;;;;;;;;;;;6.10;99.90;;;;;;5036503;28;20286;-72
2023/01/14 09:17:41;;;;;;;;;;;6.10;99.90;;;;;;5052027;28;20278;-69
2023/01/14 09:20:08;;;;;;;;;;;6.10;99.90;;;;;;5052463;28;19920;-68
2023/01/14 09:22:34;;;;;;;;;;;6.10;99.90;;;;;;5052402;28;19921;-68
2023/01/14 09:25:00;;;;;;;;;;;6.10;99.90;;;;;;5052547;28;20016;-68
2023/01/14 09:27:27;;;;;;;;;;;6.10;99.90;;;;;;5035875;28;19927;-68
2023/01/14 09:29:53;;;;;;;;;;;6.10;99.90;;;;;;5052445;28;19999;-68
2023/01/14 09:32:18;;;;;;;;;;;6.10;99.90;;;;;;5035965;28;20020;-68
2023/01/14 09:34:47;;;;;;;;;;;6.10;99.90;;;;;;5052134;28;19921;-68
2023/01/14 09:37:14;;;;;;;;;;;6.10;99.90;;;;;;5052227;28;20227;-68
2023/01/14 09:39:39;;;;;;;;;;;6.00;99.90;;;;;;5051544;28;19925;-75
2023/01/14 09:42:07;;;;;;;;;;;6.00;99.90;;;;;;5035421;28;20264;-69
2023/01/14 09:44:33;;;;;;;;;;;6.00;99.90;;;;;;5035967;28;20350;-70
2023/01/14 09:46:58;;;;;;;;;;;6.00;99.90;;;;;;5051656;28;19924;-67
2023/01/14 09:49:26;;;;;;;;;;;6.10;99.90;;;;;;5035668;28;20351;-68
2023/01/14 09:52:03;;;;;;;;;;;6.00;99.90;;;;;;5051575;28;19943;-68
2023/01/14 09:54:35;;;;;;;;;;;6.00;99.90;;;;;;5052268;28;19970;-68
2023/01/14 09:57:09;;;;;;;;;;;6.00;99.90;;;;;;5051716;28;20200;-68
2023/01/14 09:59:39;;;;;;;;;;;6.00;99.90;;;;;;5052251;28;20346;-68
2023/01/14 10:02:05;;;;;;;;;;;6.00;99.90;;;;;;5052625;28;20019;-69
2023/01/14 10:04:36;;;;;;;;;;;6.00;99.90;;;;;;5051827;28;19971;-69
2023/01/14 10:07:02;;;;;;;;;;;6.00;99.90;;;;;;5051129;28;20495;-69
2023/01/14 10:09:37;;;;;;;;;;;6.10;99.90;;;;;;5052989;28;19982;-68
2023/01/14 10:12:06;;;;;;;;;;;6.10;99.90;;;;;;5051105;28;19947;-69
2023/01/14 10:14:55;;;;;;;;;;;6.10;99.90;;;;;;5035261;28;19927;-69
2023/01/14 10:17:24;;;;;;;;;;;6.00;99.90;;;;;;5041119;28;19921;-69
2023/01/14 10:19:51;;;;;;;;;;;6.10;99.90;;;;;;5052399;28;19925;-68
2023/01/14 10:22:36;;;;;;;;;;;6.00;99.90;;;;;;5034910;28;19921;-68
2023/01/14 10:25:04;;;;;;;;;;;6.20;99.90;;;;;;5051346;28;20286;-68
2023/01/14 10:27:31;;;;;;;;;;;6.10;99.90;;;;;;5035165;28;19924;-68
2023/01/14 10:30:05;;;;;;;;;;;6.20;99.90;;;;;;5050759;28;19946;-69
2023/01/14 10:32:31;;;;;;;;;;;6.20;99.90;;;;;;5051593;28;19921;-69
2023/01/14 10:34:57;;;;;;;;;;;6.20;99.90;;;;;;5052145;28;20297;-69
2023/01/14 10:37:22;;;;;;;;;;;6.30;99.90;;;;;;5051398;28;19928;-68
2023/01/14 10:39:50;;;;;;;;;;;6.30;99.90;;;;;;5034618;28;19928;-75
2023/01/14 10:42:22;;;;;;;;;;;6.20;99.90;;;;;;5051315;28;19927;-69
2023/01/14 10:44:48;;;;;;;;;;;6.30;99.90;;;;;;5050956;28;19969;-73
2023/01/14 10:47:16;;;;;;;;;;;6.30;99.90;;;;;;5051056;28;20015;-68
2023/01/14 10:49:42;;;;;;;;;;;6.40;99.90;;;;;;5050639;28;19920;-68
2023/01/14 10:52:28;;;;;;;;;;;6.40;99.90;;;;;;5050361;28;19952;-68
2023/01/14 10:55:07;;;;;;;;;;;6.50;99.90;;;;;;5050842;28;19920;-70
2023/01/14 10:57:34;;;;;;;;;;;6.50;99.90;;;;;;5050427;28;20289;-68
2023/01/14 11:00:00;;;;;;;;;;;6.60;99.90;;;;;;5050335;28;20052;-69
2023/01/14 11:02:28;;;;;;;;;;;6.50;99.90;;;;;;5050498;28;20019;-71
2023/01/14 11:04:54;;;;;;;;;;;6.60;99.90;;;;;;5050488;28;20285;-68
2023/01/14 11:07:26;;;;;;;;;;;6.60;99.90;;;;;;5052148;28;19924;-69
2023/01/14 11:09:52;;;;;;;;;;;6.60;99.90;;;;;;5050563;28;19921;-74
2023/01/14 11:12:25;;;;;;;;;;;6.70;99.90;;;;;;5050769;28;19927;-69
2023/01/14 11:14:51;;;;;;;;;;;6.70;99.90;;;;;;5051244;28;19921;-69
2023/01/14 11:17:21;;;;;;;;;;;6.80;99.90;;;;;;5050958;28;19937;-69
2023/01/14 11:19:46;;;;;;;;;;;6.70;99.90;;;;;;5051788;28;20366;-69
2023/01/14 11:22:12;;;;;;;;;;;6.80;99.90;;;;;;5050400;28;20008;-69
2023/01/14 11:24:44;;;;;;;;;;;6.80;99.90;;;;;;5050485;28;19928;-71
2023/01/14 11:27:23;;;;;;;;;;;6.80;99.90;;;;;;5050658;28;19920;-70
2023/01/14 11:29:48;;;;;;;;;;;6.80;99.90;;;;;;5050776;28;19921;-69
2023/01/14 11:32:18;;;;;;;;;;;6.80;99.90;;;;;;5051457;28;19982;-71
2023/01/14 11:34:49;;;;;;;;;;;6.70;99.90;;;;;;5050270;28;19925;-69
2023/01/14 11:37:17;;;;;;;;;;;6.80;99.90;;;;;;5033280;28;20393;-69
2023/01/14 11:39:51;;;;;;;;;;;6.80;99.90;;;;;;5051351;28;19929;-68
2023/01/14 11:42:23;;;;;;;;;;;6.90;99.90;;;;;;5050225;28;19927;-68
2023/01/14 11:45:03;;;;;;;;;;;6.90;99.90;;;;;;5050694;28;19921;-69
2023/01/14 11:47:32;;;;;;;;;;;6.80;99.90;;;;;;5033935;28;19927;-69
2023/01/14 11:50:16;;;;;;;;;;;6.80;99.90;;;;;;5051465;28;19924;-77
2023/01/14 11:52:53;;;;;;;;;;;6.90;99.90;;;;;;5033813;28;20277;-70
2023/01/14 11:55:19;;;;;;;;;;;6.90;99.90;;;;;;5050042;28;19943;-72
2023/01/14 11:57:45;;;;;;;;;;;6.90;99.90;;;;;;5034111;28;20003;-70
2023/01/14 12:00:11;;;;;;;;;;;6.90;99.90;;;;;;5050088;28;19982;-69
2023/01/14 12:02:40;;;;;;;;;;;6.80;99.90;;;;;;5036129;28;19960;-69
2023/01/14 12:05:11;;;;;;;;;;;6.80;99.90;;;;;;5054103;28;19920;-69
2023/01/14 12:07:43;;;;;;;;;;;6.90;99.90;;;;;;5053970;28;20278;-70
2023/01/14 12:10:18;;;;;;;;;;;6.50;99.90;;;;;;5037470;28;20361;-70
2023/01/14 12:18:36;;;;;;;;;;;6.90;99.90;;;;;;5054087;28;19921;-70
2023/01/14 12:21:03;;;;;;;;;;;6.90;99.90;;;;;;5053824;28;20011;-76
2023/01/14 12:23:29;;;;;;;;;;;7.00;99.90;;;;;;5053440;28;20365;-71
2023/01/14 12:25:56;;;;;;;;;;;6.90;99.90;;;;;;5037131;28;19925;-72
2023/01/14 12:28:30;;;;;;;;;;;7.00;99.90;;;;;;5036817;28;19917;-70
2023/01/14 12:31:02;;;;;;;;;;;7.00;99.90;;;;;;5054023;28;19921;-70
2023/01/14 12:33:31;;;;;;;;;;;7.00;99.90;;;;;;5036899;28;19921;-72
2023/01/14 12:36:08;;;;;;;;;;;7.10;99.90;;;;;;5036769;28;19920;-74
2023/01/14 12:47:25;;;;;;;;;;;7.10;99.90;;;;;;5053307;28;20251;-73
2023/01/14 12:49:51;;;;;;;;;;;7.20;99.90;;;;;;5036520;28;19964;-72
2023/01/14 12:52:29;;;;;;;;;;;7.30;99.90;;;;;;5036496;28;19967;-74
2023/01/14 12:54:56;;;;;;;;;;;7.30;99.90;;;;;;5052931;28;19967;-72
2023/01/14 12:57:22;;;;;;;;;;;7.30;99.90;;;;;;5053177;28;20342;-70
2023/01/14 12:59:51;;;;;;;;;;;7.40;99.90;;;;;;5053452;28;19921;-69
2023/01/14 13:02:26;;;;;;;;;;;7.30;99.90;;;;;;5052866;28;20281;-69
2023/01/14 13:05:01;;;;;;;;;;;7.40;99.90;;;;;;5036660;28;19921;-70
2023/01/14 13:07:28;;;;;;;;;;;7.40;99.90;;;;;;5052477;28;20274;-70
2023/01/14 13:09:55;;;;;;;;;;;7.50;99.90;;;;;;5053385;28;19921;-68
2023/01/14 13:12:26;;;;;;;;;;;7.40;99.90;;;;;;5052540;28;19927;-69
2023/01/14 13:15:00;;;;;;;;;;;7.50;99.90;;;;;;5051906;28;19921;-68
2023/01/14 13:17:32;;;;;;;;;;;7.60;99.90;;;;;;5052502;28;19921;-68
2023/01/14 13:19:58;;;;;;;;;;;7.70;99.90;;;;;;5052999;28;19944;-68
2023/01/14 13:22:42;;;;;;;;;;;7.60;99.90;;;;;;5053478;28;20007;-67
2023/01/14 13:25:17;;;;;;;;;;;7.70;99.90;;;;;;5036141;28;19920;-68
2023/01/14 13:27:43;;;;;;;;;;;7.70;99.90;;;;;;5052792;28;19970;-68
2023/01/14 13:30:18;;;;;;;;;;;7.80;99.90;;;;;;5035697;28;20290;-68
2023/01/14 13:32:50;;;;;;;;;;;7.90;99.90;;;;;;5052132;28;19960;-68
2023/01/14 13:35:16;;;;;;;;;;;;;;;;;;5052126;28;20290;-69
2023/01/14 13:37:43;;;;;;;;;;;8.00;99.90;;;;;;5046132;28;20015;-67
2023/01/14 13:40:20;;;;;;;;;;;8.00;99.90;;;;;;5052582;28;20016;-69
2023/01/14 13:42:46;;;;;;;;;;;;;;;;;;5052677;28;19921;-68
2023/01/14 13:45:20;;;;;;;;;;;8.00;99.90;;;;;;5050586;28;20323;-70
2023/01/14 13:47:48;;;;;;;;;;;8.10;99.90;;;;;;5052300;28;19921;-68
2023/01/14 13:50:22;;;;;;;;;;;8.00;99.90;;;;;;5051939;28;19928;-70
2023/01/14 13:52:50;;;;;;;;;;;8.10;99.90;;;;;;5052219;28;19928;-68
2023/01/14 13:55:19;;;;;;;;;;;8.20;99.90;;;;;;5050568;28;19927;-68
2023/01/14 13:57:50;;;;;;;;;;;8.20;99.90;;;;;;5052461;28;20293;-69
2023/01/14 14:00:19;;;;;;;;;;;8.20;99.90;;;;;;5050433;28;20251;-69
2023/01/14 14:02:44;;;;;;;;;;;8.30;99.90;;;;;;5051472;28;20451;-68
2023/01/14 14:05:23;;;;;;;;;;;8.30;99.90;;;;;;5051832;28;19968;-69
2023/01/14 14:07:49;;;;;;;;;;;8.30;99.90;;;;;;5051327;28;19920;-68
2023/01/14 14:10:23;;;;;;;;;;;8.40;99.90;;;;;;5052136;28;19930;-72
2023/01/14 14:15:44;;;;;;;;;;;8.50;99.90;;;;;;5049422;28;20065;-68
2023/01/14 14:18:18;;;;;;;;;;;8.60;99.90;;;;;;5051204;28;19925;-69
2023/01/14 14:20:44;;;;;;;;;;;8.60;99.90;;;;;;5050395;28;19927;-67
2023/01/14 14:23:18;;;;;;;;;;;8.60;99.90;;;;;;5050104;28;19935;-67
2023/01/14 14:25:43;;;;;;;;;;;8.70;99.90;;;;;;5051423;28;19992;-68
2023/01/14 14:28:14;;;;;;;;;;;8.70;99.90;;;;;;5051022;28;19928;-68
2023/01/14 14:30:44;;;;;;;;;;;8.70;99.90;;;;;;5050354;28;19931;-69
2023/01/14 14:33:42;;;;;;;;;;;8.80;99.90;;;;;;5031757;28;19991;-67
2023/01/14 14:36:14;;;;;;;;;;;8.80;99.90;;;;;;4990701;28;19998;-68
2023/01/14 14:38:44;;;;;;;;;;;8.90;99.90;;;;;;5050123;28;19924;-68
2023/01/14 14:41:22;;;;;;;;;;;8.90;99.90;;;;;;5051399;28;19932;-69
2023/01/14 14:43:59;;;;;;;;;;;9.00;99.90;;;;;;5049834;28;20061;-69
2023/01/14 14:46:25;;;;;;;;;;;9.00;99.90;;;;;;5050668;28;19927;-68
2023/01/14 14:48:51;;;;;;;;;;;9.00;99.90;;;;;;5033399;28;19924;-69
2023/01/14 14:51:26;;;;;;;;;;;9.00;99.90;;;;;;5050415;28;19921;-69
2023/01/14 14:53:51;;;;;;;;;;;9.10;99.90;;;;;;5050165;28;19921;-68
2023/01/14 14:56:18;;;;;;;;;;;9.10;99.90;;;;;;5049523;28;19921;-69
2023/01/14 14:58:45;;;;;;;;;;;9.10;99.90;;;;;;5049718;28;19924;-70
2023/01/14 15:01:10;;;;;;;;;;;9.10;99.90;;;;;;5051062;28;20314;-69
2023/01/14 15:03:37;;;;;;;;;;;9.10;99.90;;;;;;5033044;28;19920;-70
2023/01/14 15:06:06;;;;;;;;;;;9.10;99.90;;;;;;5033198;28;19925;-70
2023/01/14 15:08:35;;;;;;;;;;;9.20;99.90;;;;;;5032235;28;19967;-69
2023/01/14 15:11:04;;;;;;;;;;;9.20;99.90;;;;;;5050945;28;19974;-69
2023/01/14 15:13:32;;;;;;;;;;;9.20;99.90;;;;;;5050311;28;19931;-68
2023/01/14 15:16:17;;;;;;;;;;;9.20;99.90;;;;;;5049753;28;19921;-68
2023/01/14 15:18:45;;;;;;;;;;;9.20;99.90;;;;;;5049035;28;20573;-67
2023/01/14 15:21:12;;;;;;;;;;;9.20;99.90;;;;;;5050458;28;19995;-68